Time;durP1;ratioP1;P1;durP2;ratioP2;P2;SDS_P1;SDS_P2;PMS_P1;PMS_P2;Temp;Humidity;BMP_temperature;BMP_pressure;BME280_temperature;BME280_humidity;BME280_pressure;Samples;Min_cycle;Max_cycle;Signal;HPM_P1;HPM_P2
2022/06/18 00:00:16;;;;;;;8.35;5.10;;;;;;;11.90;82.31;98853.56;4975570;28;20146;-65
2022/06/18 00:02:42;;;;;;;10.32;5.43;;;;;;;11.89;82.29;98846.69;4958138;28;20043;-66
2022/06/18 00:05:10;;;;;;;7.15;5.35;;;;;;;11.91;81.93;98856.00;4975488;28;20055;-65
2022/06/18 00:07:47;;;;;;;6.57;5.00;;;;;;;11.91;81.79;98856.00;4974934;28;20050;-65
2022/06/18 00:10:19;;;;;;;8.85;4.85;;;;;;;11.88;81.92;98859.13;4975369;28;20493;-66
2022/06/18 00:15:37;;;;;;;9.43;4.75;;;;;;;11.86;81.79;98861.28;4975133;28;20051;-65
2022/06/18 00:18:05;;;;;;;7.60;5.50;;;;;;;11.85;81.61;98861.47;4975171;28;20070;-66
2022/06/18 00:20:34;;;;;;;8.45;4.55;;;;;;;11.82;81.30;98862.78;4941461;28;20078;-65
2022/06/18 00:23:01;;;;;;;5.53;4.47;;;;;;;11.83;81.10;98857.25;4974710;28;20137;-66
2022/06/18 00:25:36;;;;;;;6.30;5.03;;;;;;;11.79;81.29;98853.50;4975150;28;20577;-65
2022/06/18 00:28:04;;;;;;;10.30;4.70;;;;;;;11.80;81.55;98852.44;4974690;28;20571;-66
2022/06/18 00:30:30;;;;;;;6.20;4.75;;;;;;;11.82;81.53;98866.28;4941525;28;20138;-65
2022/06/18 00:32:56;;;;;;;8.18;4.50;;;;;;;11.82;81.79;98862.78;4957502;28;20045;-66
2022/06/18 00:35:22;;;;;;;4.45;3.95;;;;;;;11.81;81.53;98861.22;4957082;28;20053;-67
2022/06/18 00:37:54;;;;;;;6.10;4.28;;;;;;;11.83;81.52;98867.06;4941379;28;20051;-66
2022/06/18 00:40:25;;;;;;;6.00;4.60;;;;;;;11.83;81.45;98867.06;4957398;28;20043;-65
2022/06/18 00:42:51;;;;;;;7.00;4.20;;;;;;;11.85;81.27;98866.78;4940655;28;20125;-66
2022/06/18 00:45:22;;;;;;;7.30;4.47;;;;;;;11.86;81.26;98863.13;4974759;28;20566;-67
2022/06/18 00:48:10;;;;;;;6.93;4.32;;;;;;;11.87;80.94;98864.72;4957058;28;20053;-65
2022/06/18 00:50:51;;;;;;;5.82;4.07;;;;;;;11.89;81.43;98871.38;4974713;28;20077;-66
2022/06/18 00:53:20;;;;;;;4.72;4.10;;;;;;;11.95;81.02;98869.53;4956824;28;20046;-67
2022/06/18 00:56:04;;;;;;;5.73;4.00;;;;;;;12.04;80.58;98865.34;4974463;28;20043;-66
2022/06/18 00:58:37;;;;;;;8.18;4.80;;;;;;;12.23;79.49;98877.06;4957013;28;20274;-66
2022/06/18 01:01:11;;;;;;;8.05;3.63;;;;;;;12.44;78.74;98879.81;4974133;28;20118;-66
2022/06/18 01:03:38;;;;;;;5.90;4.20;;;;;;;12.77;77.82;98891.06;4940726;28;20043;-66
2022/06/18 01:06:32;;;;;;;5.47;3.85;;;;;;;12.98;76.32;98889.22;4956796;28;20042;-65
2022/06/18 01:09:06;;;;;;;4.88;3.60;;;;;;;13.21;75.66;98890.53;4956331;28;20473;-66
2022/06/18 01:11:38;;;;;;;6.43;3.90;;;;;;;13.58;74.34;98891.06;4940538;28;20046;-66
2022/06/18 01:14:05;;;;;;;5.00;4.32;;;;;;;13.93;73.34;98875.28;4940709;28;20149;-65
2022/06/18 01:16:33;;;;;;;5.38;3.88;;;;;;;14.35;71.50;98882.03;4940736;28;20057;-66
2022/06/18 01:19:00;;;;;;;4.93;3.67;;;;;;;14.72;70.11;98900.28;4940508;28;20047;-65
2022/06/18 01:21:40;;;;;;;4.78;3.70;;;;;;;14.94;68.88;98891.84;4908872;28;20035;-66
2022/06/18 01:24:11;;;;;;;;;;;;;;;15.32;66.89;98897.44;4956854;28;20509;-66
2022/06/18 01:26:37;;;;;;;;;;;;;;;15.57;66.18;98902.56;4909319;28;20048;-66
2022/06/18 01:29:03;;;;;;;5.78;4.00;;;;;;;15.78;65.35;98907.75;4956276;28;20154;-66
2022/06/18 01:31:30;;;;;;;4.43;3.65;;;;;;;16.07;63.80;98908.47;4973427;28;20042;-67
2022/06/18 01:33:57;;;;;;;4.50;3.80;;;;;;;16.46;62.53;98907.47;4955893;28;20050;-65
2022/06/18 01:36:31;;;;;;;4.75;3.97;;;;;;;16.86;61.54;98917.94;4940669;28;20043;-65
2022/06/18 01:38:57;;;;;;;4.15;3.50;;;;;;;17.12;60.43;98921.84;4956079;28;20054;-67
2022/06/18 01:44:34;;;;;;;3.65;3.10;;;;;;;18.02;57.20;98930.50;4955840;28;20509;-65
2022/06/18 01:47:12;;;;;;;3.85;3.45;;;;;;;18.51;55.78;98928.19;4955914;28;20057;-65
2022/06/18 01:49:59;;;;;;;4.60;3.42;;;;;;;18.70;54.82;98926.16;4973375;28;20047;-66
2022/06/18 01:52:30;;;;;;;6.85;3.47;;;;;;;19.10;53.45;98929.06;4973018;28;20130;-66
2022/06/18 01:55:07;;;;;;;4.75;3.60;;;;;;;19.40;52.45;98932.88;4955006;28;20105;-64
2022/06/18 01:57:36;;;;;;;3.75;3.17;;;;;;;19.73;51.43;98936.09;4939832;28;20420;-65
2022/06/18 02:00:13;;;;;;;4.10;3.70;;;;;;;19.74;51.34;98926.97;4940153;28;20515;-65
2022/06/18 02:02:52;;;;;;;4.38;3.20;;;;;;;20.04;51.05;98924.56;4955923;28;20073;-64
2022/06/18 02:05:19;;;;;;;4.65;3.45;;;;;;;20.42;49.85;98929.41;4955825;28;20049;-65
2022/06/18 02:07:46;;;;;;;3.90;3.22;;;;;;;20.80;48.83;98923.47;4955664;28;20039;-65
2022/06/18 02:10:39;;;;;;;4.40;3.10;;;;;;;21.17;47.54;98924.72;4940374;28;20078;-65
2022/06/18 02:13:05;;;;;;;4.75;3.05;;;;;;;21.50;46.49;98933.13;4944618;28;20409;-66
2022/06/18 02:15:52;;;;;;;6.88;3.28;;;;;;;21.82;45.79;98936.34;4932088;28;20429;-66
2022/06/18 02:18:19;;;;;;;5.15;3.25;;;;;;;22.03;45.10;98932.94;4955427;28;20093;-66
2022/06/18 02:20:49;;;;;;;4.70;2.90;;;;;;;22.23;44.23;98934.94;4973002;28;20039;-66
2022/06/18 02:23:17;;;;;;;3.42;3.08;;;;;;;22.40;43.68;98934.84;4939552;28;20070;-67
2022/06/18 02:25:44;;;;;;;3.33;3.00;;;;;;;22.50;43.27;98932.88;4955622;28;20428;-66
2022/06/18 02:28:32;;;;;;;3.35;3.00;;;;;;;22.45;43.38;98925.78;4955266;28;20035;-66
2022/06/18 02:31:01;;;;;;;5.03;3.00;;;;;;;22.57;42.87;98931.25;4939841;28;20070;-65
2022/06/18 02:33:34;;;;;;;4.03;3.10;;;;;;;22.90;42.01;98938.66;4955130;28;20046;-66
2022/06/18 02:36:10;;;;;;;3.50;3.00;;;;;;;23.03;41.98;98934.13;4972639;28;20042;-66
2022/06/18 02:38:35;;;;;;;5.90;3.05;;;;;;;23.26;41.62;98932.63;4939456;28;20531;-65
2022/06/18 02:41:01;;;;;;;5.53;2.90;;;;;;;23.32;41.30;98935.94;4955160;28;20050;-65
2022/06/18 02:43:27;;;;;;;7.18;3.22;;;;;;;23.29;40.83;98940.09;4939211;28;20117;-66
2022/06/18 02:45:54;;;;;;;5.45;3.65;;;;;;;23.32;40.80;98923.22;4972538;28;20043;-67
2022/06/18 02:48:24;;;;;;;5.45;3.00;;;;;;;23.23;40.35;98929.81;4938985;28;20048;-66
2022/06/18 02:50:50;;;;;;;5.25;3.35;;;;;;;23.22;41.35;98930.94;4955510;28;20125;-65
2022/06/18 02:53:18;;;;;;;4.38;3.25;;;;;;;22.96;40.97;98936.56;4954939;28;20047;-65
2022/06/18 02:55:46;;;;;;;4.53;3.30;;;;;;;22.57;41.46;98928.56;4972670;28;20089;-66
2022/06/18 02:58:19;;;;;;;4.47;3.67;;;;;;;22.75;41.01;98925.75;4955018;28;20121;-64
2022/06/18 03:00:48;;;;;;;4.00;3.40;;;;;;;22.97;40.68;98922.75;4955409;28;20043;-66
2022/06/18 03:03:16;;;;;;;5.28;3.63;;;;;;;23.19;39.99;98927.00;4972213;28;20472;-66
2022/06/18 03:05:41;;;;;;;5.47;3.08;;;;;;;23.29;40.13;98929.25;4939735;28;20532;-67
2022/06/18 03:08:08;;;;;;;5.13;3.30;;;;;;;23.38;39.82;98936.50;4976063;28;20042;-66
2022/06/18 03:13:19;;;;;;;3.47;2.78;;;;;;;23.62;39.90;98933.06;4942451;28;20102;-66
2022/06/18 03:15:52;;;;;;;4.97;2.33;;;;;;;23.67;39.10;98930.16;4958582;28;20078;-65
2022/06/18 03:18:21;;;;;;;1.90;1.73;;;;;;;23.50;38.95;98931.94;4958660;28;20047;-66
2022/06/18 03:20:53;;;;;;;3.25;2.30;;;;;;;23.34;39.73;98923.66;4976058;28;20104;-65
2022/06/18 03:23:19;;;;;;;3.75;2.05;;;;;;;23.27;39.04;98930.75;4942536;28;20179;-66
2022/06/18 03:25:45;;;;;;;2.67;1.80;;;;;;;23.39;39.32;98930.00;4958494;28;20185;-66
2022/06/18 03:28:12;;;;;;;3.08;2.10;;;;;;;23.37;39.21;98932.25;4926756;28;20049;-66
2022/06/18 03:30:39;;;;;;;2.65;2.40;;;;;;;23.58;39.13;98930.25;4958557;28;20061;-66
2022/06/18 03:33:06;;;;;;;3.10;1.85;;;;;;;23.71;38.10;98931.13;4958161;28;20047;-66
2022/06/18 03:35:32;;;;;;;1.88;1.77;;;;;;;23.62;37.92;98928.47;4958383;28;20074;-65
2022/06/18 03:37:58;;;;;;;2.97;2.05;;;;;;;23.78;38.51;98939.47;4942491;28;20505;-65
2022/06/18 03:40:24;;;;;;;2.20;1.95;;;;;;;23.70;37.85;98926.81;4958407;28;20057;-66
2022/06/18 03:42:53;;;;;;;1.95;1.83;;;;;;;23.20;38.55;98931.25;4942175;28;20476;-65
2022/06/18 03:45:20;;;;;;;2.33;2.10;;;;;;;23.39;38.89;98932.69;4942862;28;20042;-66
2022/06/18 03:47:47;;;;;;;2.00;1.65;;;;;;;23.61;38.49;98936.91;4958081;28;20043;-66
2022/06/18 03:50:16;;;;;;;2.45;1.83;;;;;;;23.48;39.52;98933.41;4958296;28;20497;-66
2022/06/18 03:52:42;;;;;;;2.15;1.55;;;;;;;23.52;38.27;98937.78;4942025;28;20047;-68
2022/06/18 03:55:09;;;;;;;2.08;1.70;;;;;;;23.60;38.37;98940.75;4957897;28;20057;-66
2022/06/18 03:57:36;;;;;;;3.75;1.92;;;;;;;23.37;38.39;98945.75;4942381;28;20402;-66
2022/06/18 04:00:04;;;;;;;2.08;1.83;;;;;;;23.08;38.59;98944.72;4941941;28;20141;-67
2022/06/18 04:02:32;;;;;;;2.47;1.80;;;;;;;23.23;38.97;98944.13;4975378;28;20043;-66
2022/06/18 04:04:57;;;;;;;2.17;1.70;;;;;;;23.04;39.53;98957.34;4957865;28;20053;-66
2022/06/18 04:07:24;;;;;;;2.03;1.90;;;;;;;22.77;39.62;98953.22;4957929;28;20038;-66
2022/06/18 04:10:21;;;;;;;3.15;1.80;;;;;;;22.74;39.97;98949.28;4975274;28;20109;-67
2022/06/18 04:12:48;;;;;;;2.85;1.90;;;;;;;22.95;39.47;98948.50;4957612;28;20053;-66
2022/06/18 04:15:24;;;;;;;4.38;2.00;;;;;;;23.04;39.57;98946.53;4926992;28;20047;-66
2022/06/18 04:18:02;;;;;;;2.47;1.70;;;;;;;23.28;40.33;98945.84;4942405;28;20098;-67
2022/06/18 04:20:31;;;;;;;2.50;1.90;;;;;;;23.32;38.69;98942.16;4957733;28;20039;-66
2022/06/18 04:22:59;;;;;;;3.15;1.80;;;;;;;23.29;39.85;98947.41;4941803;28;20051;-66
2022/06/18 04:25:25;;;;;;;1.80;1.70;;;;;;;23.18;38.13;98944.34;4941478;28;20089;-66
2022/06/18 04:27:51;;;;;;;1.92;1.73;;;;;;;23.08;39.20;98948.22;4941277;28;20089;-65
2022/06/18 04:30:18;;;;;;;5.13;1.95;;;;;;;22.98;39.15;98951.34;4941163;28;20050;-67
2022/06/18 04:33:00;;;;;;;2.53;1.70;;;;;;;22.44;40.18;98946.59;4957130;28;20084;-66
2022/06/18 04:35:27;;;;;;;3.55;1.80;;;;;;;22.71;39.64;98958.03;4957515;28;20101;-66
2022/06/18 04:38:00;;;;;;;2.05;1.70;;;;;;;22.96;39.49;98955.50;4942052;28;20579;-66
2022/06/18 04:40:34;;;;;;;4.78;2.10;;;;;;;22.81;39.61;98948.75;4957306;28;20516;-65
2022/06/18 04:43:26;;;;;;;1.83;1.60;;;;;;;23.19;39.78;98953.25;4970639;28;20476;-65
2022/06/18 04:45:54;;;;;;;2.03;1.70;;;;;;;23.04;38.95;98954.63;4957052;28;20042;-67
2022/06/18 04:48:22;;;;;;;3.55;1.77;;;;;;;22.99;38.00;98965.66;4940860;28;20070;-67
2022/06/18 04:50:51;;;;;;;4.55;1.55;;;;;;;22.68;38.23;98964.09;4940961;28;20126;-67
2022/06/18 04:53:17;;;;;;;3.50;1.83;;;;;;;22.51;38.20;98962.28;4940867;28;20046;-66
2022/06/18 04:55:46;;;;;;;2.45;1.65;;;;;;;22.71;38.75;98966.13;4957175;28;20134;-68
2022/06/18 04:58:12;;;;;;;4.97;1.80;;;;;;;22.77;39.58;98964.81;4956694;28;20117;-66
2022/06/18 05:00:43;;;;;;;2.70;2.13;;;;;;;22.74;38.56;98962.78;4956804;28;20073;-67
2022/06/18 05:03:25;;;;;;;8.88;2.25;;;;;;;22.95;38.37;98972.84;4926822;28;20058;-67
2022/06/18 05:06:00;;;;;;;1.70;1.55;;;;;;;22.70;37.26;98969.16;4958390;28;20092;-67
2022/06/18 05:08:41;;;;;;;1.83;1.70;;;;;;;22.64;37.90;98971.25;4956682;28;20055;-67
2022/06/18 05:11:22;;;;;;;1.80;1.50;;;;;;;22.43;37.53;98969.31;4942547;28;20051;-67
2022/06/18 05:14:06;;;;;;;3.05;1.63;;;;;;;22.15;38.09;98966.25;4973735;28;20086;-66
2022/06/18 05:16:37;;;;;;;3.90;1.83;;;;;;;21.74;39.03;98966.88;4941011;28;20050;-66
2022/06/18 05:19:04;;;;;;;3.08;2.10;;;;;;;21.32;38.95;98963.88;4956248;28;20046;-66
2022/06/18 05:21:30;;;;;;;2.38;1.70;;;;;;;20.87;39.91;98966.91;4956266;28;20509;-66
2022/06/18 05:23:57;;;;;;;1.80;1.70;;;;;;;20.53;42.01;98960.34;4940528;28;20054;-68
2022/06/18 05:26:23;;;;;;;2.53;1.60;;;;;;;20.58;42.08;98964.78;4956136;28;20042;-66
2022/06/18 05:28:49;;;;;;;2.17;1.70;;;;;;;20.50;42.82;98969.03;4956159;28;20089;-66
2022/06/18 05:31:17;;;;;;;1.70;1.60;;;;;;;20.59;43.11;98967.19;4924642;28;20066;-66
2022/06/18 05:33:43;;;;;;;2.55;1.63;;;;;;;20.57;42.42;98958.63;4955957;28;20074;-67
2022/06/18 05:36:19;;;;;;;2.92;1.65;;;;;;;20.48;43.49;98965.84;4940020;28;20070;-67
2022/06/18 05:38:46;;;;;;;2.92;2.15;;;;;;;20.38;43.70;98966.13;4940334;28;20133;-65
2022/06/18 05:41:12;;;;;;;6.85;1.73;;;;;;;20.17;44.88;98964.00;4940032;28;20053;-66
2022/06/18 05:43:37;;;;;;;3.38;1.90;;;;;;;19.99;45.48;98965.03;4939813;28;20047;-67
2022/06/18 05:46:04;;;;;;;3.55;2.30;;;;;;;19.83;45.39;98974.63;4956173;28;20043;-68
2022/06/18 05:48:29;;;;;;;2.70;2.22;;;;;;;19.80;45.90;98959.09;4973020;28;20105;-67
2022/06/18 05:50:56;;;;;;;1.77;1.67;;;;;;;19.76;44.17;98968.88;4939730;28;20039;-66
2022/06/18 05:53:22;;;;;;;4.47;1.90;;;;;;;19.70;44.91;98966.31;4939525;28;20093;-66
2022/06/18 05:56:11;;;;;;;4.30;2.65;;;;;;;19.68;44.58;98973.13;4914888;28;20086;-67
2022/06/18 05:58:37;;;;;;;4.60;2.10;;;;;;;19.63;43.87;98978.59;4939780;28;20047;-67
2022/06/18 06:01:08;;;;;;;3.17;2.42;;;;;;;19.50;44.51;98975.66;4939510;28;20050;-66
2022/06/18 06:03:34;;;;;;;6.43;3.03;;;;;;;19.31;45.85;98964.28;4939918;28;20035;-66
2022/06/18 06:06:01;;;;;;;3.58;2.78;;;;;;;19.39;46.43;98971.63;4939530;28;20050;-66
2022/06/18 06:08:27;;;;;;;2.53;2.28;;;;;;;19.40;46.49;98962.44;4955526;28;20050;-66
2022/06/18 06:13:37;;;;;;;3.13;2.30;;;;;;;19.39;45.36;98960.88;4955341;28;20061;-66
2022/06/18 06:16:04;;;;;;;2.55;2.20;;;;;;;19.34;45.05;98969.06;4923651;28;20516;-67
2022/06/18 06:18:31;;;;;;;3.08;2.60;;;;;;;19.39;45.26;98962.78;4939706;28;20038;-66
2022/06/18 06:20:59;;;;;;;3.50;2.10;;;;;;;19.32;45.43;98957.81;4972877;28;20508;-67
2022/06/18 06:23:25;;;;;;;5.45;2.28;;;;;;;19.43;45.57;98969.91;4939161;28;20158;-68
2022/06/18 06:25:51;;;;;;;5.03;2.28;;;;;;;19.58;45.81;98960.66;4955350;28;20086;-67
2022/06/18 06:28:18;;;;;;;3.97;2.42;;;;;;;19.62;46.36;98960.84;4972659;28;20038;-66
2022/06/18 06:30:44;;;;;;;2.72;1.95;;;;;;;19.71;46.57;98959.06;4972598;28;20039;-66
2022/06/18 06:33:10;;;;;;;3.70;1.95;;;;;;;19.81;45.88;98952.63;4955349;28;20046;-66
2022/06/18 06:35:36;;;;;;;10.50;2.30;;;;;;;19.74;45.84;98961.91;4955134;28;20110;-65
2022/06/18 06:38:03;;;;;;;6.32;2.42;;;;;;;19.64;45.59;98966.72;4972643;28;20046;-66
2022/06/18 06:40:29;;;;;;;2.97;1.92;;;;;;;19.61;45.35;98959.25;4974471;28;20563;-65
2022/06/18 06:42:58;;;;;;;3.38;2.00;;;;;;;19.65;44.53;98963.75;4978888;28;20050;-66
2022/06/18 06:45:32;;;;;;;2.00;1.90;;;;;;;19.74;45.35;98963.81;4930426;28;20505;-66
2022/06/18 06:47:58;;;;;;;3.17;1.90;;;;;;;19.76;46.30;98948.16;4979093;28;20074;-67
2022/06/18 06:50:25;;;;;;;3.58;1.92;;;;;;;19.91;44.61;98955.84;4961820;28;20046;-67
2022/06/18 06:52:52;;;;;;;3.33;2.08;;;;;;;19.78;45.52;98966.69;4961398;28;20153;-66
2022/06/18 06:58:05;;;;;;;5.30;2.20;;;;;;;20.07;45.83;98956.22;4961407;28;20043;-66
2022/06/18 07:00:32;;;;;;;3.90;1.80;;;;;;;20.25;45.26;98961.66;4979207;28;20057;-68
2022/06/18 07:02:58;;;;;;;5.47;1.80;;;;;;;20.28;44.12;98963.72;4961465;28;20053;-67
2022/06/18 07:05:24;;;;;;;4.18;1.88;;;;;;;20.26;43.92;98963.25;4979082;28;20054;-66
2022/06/18 07:07:50;;;;;;;9.00;2.20;;;;;;;20.33;44.67;98961.69;4978490;28;20045;-66
2022/06/18 07:10:16;;;;;;;2.45;2.00;;;;;;;20.45;43.91;98961.09;4978943;28;20050;-66
2022/06/18 07:12:43;;;;;;;8.13;2.25;;;;;;;20.54;43.50;98951.16;4978821;28;20043;-66
2022/06/18 07:15:09;;;;;;;5.35;2.20;;;;;;;20.53;43.24;98959.53;4961464;28;20054;-66
2022/06/18 07:17:35;;;;;;;3.95;1.98;;;;;;;20.43;43.79;98956.00;4942167;28;20051;-66
2022/06/18 07:20:02;;;;;;;3.03;2.20;;;;;;;20.42;44.20;98950.94;4959679;28;20055;-67
2022/06/18 07:22:29;;;;;;;3.80;2.00;;;;;;;20.35;44.78;98942.53;4959476;28;20050;-67
2022/06/18 07:24:55;;;;;;;3.95;1.90;;;;;;;20.36;43.99;98944.13;4959453;28;20514;-66
2022/06/18 07:27:21;;;;;;;2.00;1.80;;;;;;;20.48;44.03;98938.13;4959216;28;20070;-67
2022/06/18 07:29:47;;;;;;;2.17;1.85;;;;;;;20.65;43.70;98935.50;4957963;28;20409;-65
2022/06/18 07:32:15;;;;;;;4.05;1.95;;;;;;;20.78;44.54;98944.53;4941866;29;20039;-65
2022/06/18 07:34:41;;;;;;;2.92;2.05;;;;;;;20.75;43.31;98940.56;4957798;28;20059;-66
2022/06/18 07:37:07;;;;;;;7.45;3.53;;;;;;;20.78;42.53;98934.56;4957806;28;20154;-66
2022/06/18 07:39:34;;;;;;;4.10;2.25;;;;;;;20.64;42.60;98936.59;4959227;28;20047;-66
2022/06/18 07:42:00;;;;;;;4.95;2.33;;;;;;;20.63;42.92;98938.50;4958823;28;20051;-67
2022/06/18 07:44:26;;;;;;;7.20;3.42;;;;;;;20.86;42.99;98924.91;4925966;29;20043;-66
2022/06/18 07:46:53;;;;;;;5.10;1.83;;;;;;;21.08;42.86;98934.72;4941798;29;20089;-68
2022/06/18 07:49:19;;;;;;;3.63;1.83;;;;;;;21.19;42.28;98927.13;4959129;28;20055;-66
2022/06/18 07:51:45;;;;;;;4.15;1.83;;;;;;;21.43;42.42;98932.03;4958445;28;20047;-67
2022/06/18 07:54:16;;;;;;;2.00;1.85;;;;;;;21.49;41.87;98928.03;4954894;28;20094;-66
2022/06/18 07:56:42;;;;;;;3.13;1.90;;;;;;;21.60;42.36;98933.91;4956208;28;20126;-67
2022/06/18 07:59:07;;;;;;;3.03;2.38;;;;;;;21.41;40.18;98929.63;4956184;28;20126;-66
2022/06/18 08:01:33;;;;;;;13.20;2.50;;;;;;;21.58;40.96;98930.72;4956168;28;20425;-67
2022/06/18 08:03:59;;;;;;;6.53;2.58;;;;;;;21.80;41.60;98941.31;4955889;28;20533;-65
2022/06/18 08:06:25;;;;;;;5.45;1.95;;;;;;;22.29;39.77;98930.16;4954565;28;20139;-68
2022/06/18 08:08:51;;;;;;;4.90;2.05;;;;;;;22.47;39.25;98922.75;4954533;28;20079;-65
2022/06/18 08:11:19;;;;;;;2.08;1.88;;;;;;;22.53;40.45;98926.81;4954754;29;20071;-66
2022/06/18 08:13:44;;;;;;;2.08;1.70;;;;;;;22.48;39.86;98927.03;4955564;28;20149;-67
2022/06/18 08:16:13;;;;;;;2.65;1.88;;;;;;;22.73;38.97;98925.25;4954185;28;20138;-67
2022/06/18 08:18:39;;;;;;;3.00;1.58;;;;;;;22.74;37.87;98924.94;4955507;28;20560;-65
2022/06/18 08:21:11;;;;;;;1.42;1.33;;;;;;;22.70;36.13;98931.34;4938489;29;20058;-67
2022/06/18 08:23:38;;;;;;;3.10;1.90;;;;;;;22.42;37.33;98921.81;4954042;28;20067;-66
2022/06/18 08:26:05;;;;;;;2.80;1.67;;;;;;;22.33;37.47;98923.78;4954328;29;20074;-69
2022/06/18 08:28:31;;;;;;;3.08;1.60;;;;;;;22.26;36.83;98928.09;4955227;28;20045;-66
2022/06/18 08:30:57;;;;;;;2.55;1.70;;;;;;;22.18;37.35;98935.16;4954139;29;20047;-67
2022/06/18 08:33:23;;;;;;;5.88;1.85;;;;;;;22.34;38.27;98929.97;4954155;28;20051;-66
2022/06/18 08:35:49;;;;;;;8.20;2.20;;;;;;;22.58;38.14;98921.25;4954367;29;20590;-67
2022/06/18 08:38:14;;;;;;;3.03;1.70;;;;;;;22.37;37.93;98927.41;4955074;28;20043;-65
2022/06/18 08:40:47;;;;;;;4.15;2.10;;;;;;;22.12;38.84;98923.72;4938195;29;20043;-68
2022/06/18 08:43:12;;;;;;;5.35;2.17;;;;;;;22.11;39.66;98927.50;4955045;28;20078;-67
2022/06/18 08:46:06;;;;;;;2.10;1.80;;;;;;;22.04;39.35;98927.22;4955619;28;20087;-66
2022/06/18 08:48:53;;;;;;;5.45;1.88;;;;;;;21.91;37.96;98920.94;4954926;28;20067;-64
2022/06/18 08:51:48;;;;;;;1.75;1.40;;;;;;;21.94;37.71;98927.56;4955289;28;20053;-66
2022/06/18 08:54:34;;;;;;;1.98;1.73;;;;;;;21.99;37.66;98927.41;4954883;28;20062;-65
2022/06/18 08:57:31;;;;;;;2.28;1.88;;;;;;;22.10;38.52;98928.63;4953676;29;20466;-64
2022/06/18 09:00:06;;;;;;;3.45;1.50;;;;;;;22.36;39.27;98912.34;4954739;28;20054;-65
2022/06/18 09:02:37;;;;;;;2.35;1.83;;;;;;;22.70;38.44;98926.72;4954677;28;20418;-67
2022/06/18 09:05:13;;;;;;;5.65;1.52;;;;;;;22.87;38.26;98936.59;4954494;28;20047;-66
2022/06/18 09:08:10;;;;;;;4.85;1.83;;;;;;;22.81;38.61;98936.00;4953574;28;20089;-67
2022/06/18 09:10:59;;;;;;;4.30;1.70;;;;;;;22.96;36.69;98940.06;4937569;29;20075;-66
2022/06/18 09:13:29;;;;;;;3.77;1.67;;;;;;;22.86;36.34;98935.81;4953301;28;20043;-66
2022/06/18 09:15:57;;;;;;;2.83;1.70;;;;;;;22.86;36.67;98933.13;4953355;29;20126;-66
2022/06/18 09:18:31;;;;;;;2.25;1.40;;;;;;;22.73;36.95;98926.06;4953143;28;20043;-66
2022/06/18 09:21:01;;;;;;;4.90;1.38;;;;;;;22.78;36.27;98933.97;4954484;28;20509;-65
2022/06/18 09:23:31;;;;;;;5.03;1.95;;;;;;;22.85;35.80;98925.34;4953188;28;20553;-64
2022/06/18 09:25:59;;;;;;;3.03;1.88;;;;;;;22.61;35.52;98923.28;4954593;29;20043;-64
2022/06/18 09:28:33;;;;;;;2.20;1.50;;;;;;;22.41;36.49;98922.13;4954315;28;20510;-64
2022/06/18 09:31:17;;;;;;;1.83;1.50;;;;;;;22.38;37.59;98918.19;4953176;29;20082;-65
2022/06/18 09:34:00;;;;;;;2.17;1.52;;;;;;;22.12;37.84;98923.72;4952651;28;20055;-65
2022/06/18 09:36:36;;;;;;;4.97;1.80;;;;;;;21.90;38.40;98923.97;4953109;29;20133;-66
2022/06/18 09:39:15;;;;;;;3.92;1.75;;;;;;;21.77;38.68;98931.16;4952981;28;20407;-66
2022/06/18 09:41:54;;;;;;;5.15;1.80;;;;;;;21.90;38.24;98932.06;4952947;29;20094;-67
2022/06/18 09:44:30;;;;;;;5.35;2.45;;;;;;;22.11;38.46;98921.31;4954289;28;20409;-67
2022/06/18 09:47:05;;;;;;;2.05;1.85;;;;;;;22.48;36.82;98921.63;4954167;28;20047;-65
2022/06/18 09:49:31;;;;;;;2.95;2.10;;;;;;;22.71;36.33;98924.78;4952750;28;20058;-66
2022/06/18 09:52:07;;;;;;;2.92;1.50;;;;;;;22.53;36.08;98916.03;4954269;28;20040;-66
2022/06/18 09:54:40;;;;;;;2.05;1.50;;;;;;;22.43;35.85;98903.72;4952663;28;20086;-66
2022/06/18 09:57:08;;;;;;;4.28;1.75;;;;;;;22.25;36.72;98915.72;4952840;29;20039;-66
2022/06/18 09:59:37;;;;;;;2.53;1.90;;;;;;;22.04;37.12;98911.03;4953917;28;20079;-67
2022/06/18 10:02:16;;;;;;;3.10;1.80;;;;;;;21.75;36.94;98915.28;4952488;28;20039;-67
2022/06/18 10:07:29;;;;;;;2.53;1.60;;;;;;;22.24;37.56;98906.84;4952623;29;20051;-66
2022/06/18 10:10:00;;;;;;;2.90;1.70;;;;;;;22.58;37.32;98905.81;4952340;28;20046;-69
2022/06/18 10:12:32;;;;;;;6.20;1.83;;;;;;;22.95;36.70;98897.16;4952285;29;20553;-67
2022/06/18 10:14:59;;;;;;;3.55;1.70;;;;;;;23.04;36.80;98904.06;4953194;28;20512;-65
2022/06/18 10:17:28;;;;;;;6.85;2.00;;;;;;;22.94;36.08;98904.44;4952073;29;20097;-64
2022/06/18 10:20:10;;;;;;;5.22;1.70;;;;;;;22.84;35.60;98899.44;4953811;28;20053;-65
2022/06/18 10:22:43;;;;;;;11.18;2.15;;;;;;;22.71;34.95;98905.88;4952427;28;20046;-66
2022/06/18 10:25:41;;;;;;;6.88;2.03;;;;;;;22.61;34.74;98904.38;4936395;29;20501;-64
2022/06/18 10:28:32;;;;;;;2.78;1.73;;;;;;;22.51;35.35;98900.16;4936104;29;20045;-66
2022/06/18 10:31:16;;;;;;;;;;;;;;;22.46;35.62;98905.75;4952402;29;20082;-65
2022/06/18 10:34:00;;;;;;;3.60;2.03;;;;;;;22.24;37.22;98909.53;4952920;28;19993;-67
2022/06/18 10:36:44;;;;;;;4.63;2.22;;;;;;;22.04;36.62;98907.56;4951912;29;20036;-67
2022/06/18 10:39:47;;;;;;;2.25;1.60;;;;;;;22.05;35.79;98912.63;4952041;28;20509;-65
2022/06/18 10:42:48;;;;;;;2.20;1.42;;;;;;;22.45;34.78;98912.28;4952016;29;20051;-66
2022/06/18 10:45:22;;;;;;;5.70;1.90;;;;;;;22.70;36.08;98907.81;4953562;28;20565;-66
2022/06/18 10:47:51;;;;;;;7.90;3.30;;;;;;;22.99;36.19;98898.06;4952115;28;20047;-64
2022/06/18 10:50:18;;;;;;;2.85;2.30;;;;;;;23.25;35.74;98911.34;4935829;29;20057;-66
2022/06/18 10:52:45;;;;;;;3.85;2.20;;;;;;;23.37;35.34;98905.19;4935692;28;20426;-65
2022/06/18 10:55:16;;;;;;;2.58;1.80;;;;;;;23.55;35.76;98899.25;4953098;29;20449;-65
2022/06/18 10:57:42;;;;;;;2.28;1.73;;;;;;;23.61;34.90;98891.72;4952213;28;20040;-66
2022/06/18 11:00:15;;;;;;;5.50;2.25;;;;;;;23.61;35.28;98897.13;4951876;29;20075;-66
2022/06/18 11:02:41;;;;;;;3.08;1.75;;;;;;;23.67;35.52;98889.56;4953116;28;20089;-66
2022/06/18 11:05:28;;;;;;;5.28;1.65;;;;;;;23.75;35.40;98881.38;4951756;29;20055;-66
2022/06/18 11:07:54;;;;;;;1.83;1.70;;;;;;;23.78;34.82;98888.03;4952164;28;20074;-66
2022/06/18 11:10:37;;;;;;;4.68;1.80;;;;;;;23.80;34.76;98883.88;4952008;29;20051;-67
2022/06/18 11:13:05;;;;;;;2.78;1.70;;;;;;;23.60;34.75;98887.44;4952846;28;20521;-66
2022/06/18 11:15:34;;;;;;;3.58;1.90;;;;;;;23.35;35.23;98883.88;4955294;28;20143;-66
2022/06/18 11:18:03;;;;;;;2.13;1.90;;;;;;;23.10;35.00;98885.72;4954810;28;20085;-66
2022/06/18 11:20:30;;;;;;;3.67;1.77;;;;;;;22.90;35.77;98888.09;4972068;28;20170;-66
2022/06/18 11:23:04;;;;;;;2.88;1.90;;;;;;;22.79;35.32;98886.13;4954926;28;20081;-66
2022/06/18 11:25:36;;;;;;;5.28;1.73;;;;;;;22.56;35.63;98888.34;4971996;28;20508;-67
2022/06/18 11:28:06;;;;;;;2.35;1.60;;;;;;;22.32;36.13;98889.00;4957555;28;20038;-66
2022/06/18 11:30:44;;;;;;;3.13;1.92;;;;;;;22.06;36.44;98891.81;4958692;28;20049;-66
2022/06/18 11:33:41;;;;;;;3.75;1.88;;;;;;;22.03;37.07;98900.56;4975938;28;20054;-66
2022/06/18 11:36:12;;;;;;;4.25;1.73;;;;;;;21.86;38.60;98896.84;4958616;28;20102;-67
2022/06/18 11:38:39;;;;;;;4.65;2.08;;;;;;;21.67;40.55;98899.91;4975826;28;20089;-66
2022/06/18 11:41:42;;;;;;;5.63;2.33;;;;;;;21.38;39.04;98900.63;4958340;28;20047;-66
2022/06/18 11:44:16;;;;;;;4.03;2.40;;;;;;;21.08;39.95;98913.16;4881274;29;20052;-66
2022/06/18 11:47:04;;;;;;;2.45;2.10;;;;;;;20.47;44.63;98921.19;4931289;28;20505;-66
2022/06/18 11:50:00;;;;;;;4.57;2.42;;;;;;;20.14;46.34;98935.03;4942204;28;20548;-66
2022/06/18 11:52:40;;;;;;;3.65;2.85;;;;;;;19.92;48.57;98938.59;4942154;28;20094;-66
2022/06/18 11:55:28;;;;;;;4.47;2.70;;;;;;;19.84;49.62;98933.16;4975673;28;20476;-66
2022/06/18 11:58:03;;;;;;;3.72;2.70;;;;;;;19.65;50.15;98925.34;4957988;28;20492;-67
2022/06/18 12:00:47;;;;;;;4.47;2.60;;;;;;;19.62;51.68;98924.03;4975574;28;20051;-66
2022/06/18 12:03:39;;;;;;;12.02;3.25;;;;;;;19.52;52.87;98935.81;4975344;28;20043;-65
2022/06/18 12:06:13;;;;;;;4.78;2.80;;;;;;;19.56;54.27;98941.38;4971336;28;20595;-66
2022/06/18 12:08:40;;;;;;;5.82;2.40;;;;;;;19.38;54.43;98924.34;4974897;28;20039;-68
2022/06/18 12:11:24;;;;;;;3.80;2.20;;;;;;;19.17;55.06;98926.72;4974928;28;20424;-67